LTBI/ESK METAR and TAF weather

Enter ICAO airport designator
Station Type Date Time Source
LTBI METAR 2020/02/25 11:50 UTC NOAA

LTBI 251150Z 15006KT 110V220 CAVOK 10/M09 Q1018 NOSIG RMK RWY08 12005KT 040V210


Station Type Date Time Source
LTBI Decoded METAR 2020/02/25 11:50 UTC NOAA

Eskisehir, Turkey (LTBI) 39-47N 030-34E 785M
Feb 25, 2020 - 06:50 AM EST / 2020.02.25 1150 UTC
Wind: from the SSE (150 degrees) at 7 MPH (6 KT) (direction variable):0
Visibility: greater than 7 mile(s):0
Temperature: 50 F (10 C)
Dew Point: 15 F (-9 C)
Relative Humidity: 25%
Pressure (altimeter): 30.06 in. Hg (1018 hPa)
ob: LTBI 251150Z 15006KT 110V220 CAVOK 10/M09 Q1018 NOSIG RMK RWY08 12005KT 040V210
cycle: 12

Station Type Date Time Source
LTBI TAF 2012/05/11 09:09 UTC NOAA

TAF LTBI 110740Z 1109/1121 VRB02KT 6000 -SHRA BKN030 BKN090
TEMPO 1112/1116 33015KT 4000 -TSRA FEW025CB BKN030

Example: see airport list